createdAt,value
2019-06-07T00:00:39.201Z,55.89
2019-06-07T00:01:31.340Z,55.89
2019-06-07T00:02:30.294Z,55.89
2019-06-07T00:03:30.525Z,55.99
2019-06-07T00:04:30.232Z,55.99
2019-06-07T00:05:30.242Z,55.89
2019-06-07T00:06:30.180Z,55.89
2019-06-07T00:07:30.155Z,55.89
2019-06-07T00:08:30.139Z,55.89
2019-06-07T00:09:30.216Z,55.99
2019-06-07T00:10:36.392Z,55.99
2019-06-07T00:11:31.024Z,55.89
2019-06-07T00:12:30.009Z,55.99
2019-06-07T00:13:29.970Z,55.99
2019-06-07T00:14:29.959Z,55.99
2019-06-07T00:15:29.920Z,55.99
2019-06-07T00:16:29.886Z,55.99
2019-06-07T00:17:29.858Z,56.09
2019-06-07T00:18:29.831Z,56.09
2019-06-07T00:19:29.820Z,56.09
2019-06-07T00:20:29.797Z,55.99
2019-06-07T00:22:12.758Z,56.09
2019-06-07T00:22:33.416Z,56.09
2019-06-07T00:23:29.709Z,56.09
2019-06-07T00:24:29.696Z,56.09
2019-06-07T00:25:29.779Z,56.09
2019-06-07T00:26:29.646Z,55.99
2019-06-07T00:27:29.606Z,56.09
2019-06-07T00:28:29.578Z,55.99
2019-06-07T00:29:29.564Z,56.09
2019-06-07T00:30:41.018Z,56.09
2019-06-07T00:31:30.524Z,56.09
2019-06-07T00:32:29.466Z,56.09
2019-06-07T00:33:29.441Z,56.09
2019-06-07T00:34:29.409Z,56.09
2019-06-07T00:35:29.370Z,56.19
2019-06-07T00:36:29.346Z,56.09
2019-06-07T00:37:29.327Z,56.09
2019-06-07T00:38:29.295Z,56.19
2019-06-07T00:39:29.265Z,56.19
2019-06-07T00:40:32.109Z,56.21
2019-06-07T00:41:29.200Z,56.19
2019-06-07T00:42:29.188Z,56.19
2019-06-07T00:43:29.145Z,56.19
2019-06-07T00:44:29.122Z,56.09
2019-06-07T00:45:29.093Z,56.19
2019-06-07T00:46:29.107Z,56.21
2019-06-07T00:47:29.037Z,56.09
2019-06-07T00:48:32.602Z,55.99
2019-06-07T00:49:40.348Z,55.99
2019-06-07T00:50:29.954Z,56.09
2019-06-07T00:51:47.534Z,56.09
2019-06-07T00:53:32.476Z,56.09
2019-06-07T00:54:28.843Z,56.09
2019-06-07T00:55:28.827Z,56.09
2019-06-07T00:56:28.790Z,56.09
2019-06-07T00:57:28.774Z,56.21
2019-06-07T00:58:29.538Z,56.09
2019-06-07T00:59:29.752Z,56.12
2019-06-07T01:00:28.673Z,56.19
2019-06-07T01:01:28.642Z,56.19
2019-06-07T01:02:31.665Z,56.09
2019-06-07T01:03:28.601Z,56.09
2019-06-07T01:04:28.559Z,56.09
2019-06-07T01:05:31.373Z,56.21
2019-06-07T01:06:28.503Z,56.19
2019-06-07T01:07:28.480Z,56.09
2019-06-07T01:08:30.175Z,56.19
2019-06-07T01:09:28.422Z,56.21
2019-06-07T01:10:51.634Z,56.19
2019-06-07T01:11:29.370Z,56.19
2019-06-07T01:12:28.341Z,56.19
2019-06-07T01:13:28.307Z,56.09
2019-06-07T01:14:28.988Z,56.19
2019-06-07T01:15:29.370Z,56.09
2019-06-07T01:16:28.234Z,56.19
2019-06-07T01:17:41.693Z,56.12
2019-06-07T01:18:41.158Z,56.19
2019-06-07T01:19:29.143Z,56.19
2019-06-07T01:20:28.127Z,56.12
2019-06-07T01:21:29.710Z,56.12
2019-06-07T01:22:29.346Z,56.12
2019-06-07T01:24:05.447Z,56.21
2019-06-07T01:24:29.022Z,56.21
2019-06-07T01:25:28.926Z,56.21
2019-06-07T01:26:30.259Z,56.21
2019-06-07T01:27:28.741Z,56.31
2019-06-07T01:28:30.180Z,56.21
2019-06-07T01:29:30.869Z,56.21
2019-06-07T01:30:29.362Z,56.21
2019-06-07T01:31:31.322Z,56.21
2019-06-07T01:32:31.477Z,56.21
2019-06-07T01:33:49.182Z,56.21
2019-06-07T01:34:29.088Z,56.31
2019-06-07T01:35:29.973Z,56.31
2019-06-07T01:36:30.186Z,56.31
2019-06-07T01:37:29.993Z,56.31
2019-06-07T01:38:29.805Z,56.31
2019-06-07T01:39:29.820Z,56.31
2019-06-07T01:40:31.877Z,56.21
2019-06-07T01:41:30.844Z,56.31
2019-06-07T01:42:30.488Z,56.21
2019-06-07T01:43:30.480Z,56.31
2019-06-07T01:44:28.600Z,56.21
2019-06-07T01:45:30.868Z,56.21
2019-06-07T01:46:28.755Z,56.21
2019-06-07T01:47:31.233Z,56.31
2019-06-07T01:48:45.846Z,56.21
2019-06-07T01:49:29.776Z,56.21
2019-06-07T01:50:27.320Z,56.19
2019-06-07T01:51:30.445Z,56.21
2019-06-07T01:52:27.207Z,56.31
2019-06-07T01:53:29.137Z,56.31
2019-06-07T01:54:52.290Z,56.31
2019-06-07T01:55:32.336Z,56.31
2019-06-07T01:56:29.596Z,56.31
2019-06-07T01:57:38.306Z,56.31
2019-06-07T01:58:29.254Z,56.21
2019-06-07T01:59:28.569Z,56.31
2019-06-07T02:00:31.904Z,56.41
2019-06-07T02:01:34.744Z,56.31
2019-06-07T02:02:31.227Z,56.31
2019-06-07T02:03:32.178Z,56.41
2019-06-07T02:04:32.418Z,56.31
2019-06-07T02:05:30.893Z,56.31
2019-06-07T02:06:31.379Z,56.31
2019-06-07T02:07:32.613Z,56.31
2019-06-07T02:08:34.097Z,56.31
2019-06-07T02:09:29.873Z,56.31
2019-06-07T02:10:29.966Z,56.31
2019-06-07T02:11:29.439Z,56.31
2019-06-07T02:12:37.692Z,56.31
2019-06-07T02:13:30.372Z,56.31
2019-06-07T02:14:29.889Z,56.31
2019-06-07T02:15:31.252Z,56.31
2019-06-07T02:16:30.268Z,56.31
2019-06-07T02:17:29.742Z,56.31
2019-06-07T02:18:29.147Z,56.31
2019-06-07T02:19:31.157Z,56.31
2019-06-07T02:20:33.504Z,56.31
2019-06-07T02:21:28.717Z,56.31
2019-06-07T02:22:29.486Z,56.31
2019-06-07T02:23:29.201Z,56.41
2019-06-07T02:24:28.932Z,56.41
2019-06-07T02:25:41.917Z,56.31
2019-06-07T02:26:29.968Z,56.31
2019-06-07T02:27:27.529Z,56.31
2019-06-07T02:28:36.198Z,56.31
2019-06-07T02:29:30.240Z,56.41
2019-06-07T02:30:51.190Z,56.41
2019-06-07T02:31:31.007Z,56.41
2019-06-07T02:32:29.797Z,56.41
2019-06-07T02:33:33.531Z,56.41
2019-06-07T02:34:28.271Z,56.41
2019-06-07T02:35:38.315Z,56.41
2019-06-07T02:36:30.470Z,56.41
2019-06-07T02:37:31.585Z,56.41
2019-06-07T02:38:29.751Z,56.41
2019-06-07T02:39:30.424Z,56.41
2019-06-07T02:40:29.948Z,56.41
2019-06-07T02:41:33.604Z,56.41
2019-06-07T02:42:30.788Z,56.41
2019-06-07T02:43:28.218Z,56.41
2019-06-07T02:44:31.843Z,56.41
2019-06-07T02:45:29.985Z,56.41
2019-06-07T02:46:35.028Z,56.41
2019-06-07T02:47:28.730Z,56.41
2019-06-07T02:48:28.007Z,56.41
2019-06-07T02:49:28.927Z,56.41
2019-06-07T02:50:29.195Z,56.51
2019-06-07T02:51:32.343Z,56.51
2019-06-07T02:52:29.347Z,56.51
2019-06-07T02:53:27.719Z,56.51
2019-06-07T02:54:27.385Z,56.51
2019-06-07T02:55:29.094Z,56.51
2019-06-07T02:56:39.154Z,56.51
2019-06-07T02:57:29.284Z,56.51
2019-06-07T02:58:32.484Z,56.51
2019-06-07T02:59:50.966Z,56.41
2019-06-07T03:01:00.573Z,56.41
2019-06-07T03:01:28.553Z,56.41
2019-06-07T03:02:30.915Z,56.51
2019-06-07T03:03:29.961Z,56.51
2019-06-07T03:04:28.546Z,56.51
2019-06-07T03:05:25.262Z,56.41
2019-06-07T03:06:29.803Z,56.51
2019-06-07T03:07:27.779Z,56.41
2019-06-07T03:08:25.830Z,56.51
2019-06-07T03:09:26.368Z,56.41
2019-06-07T03:10:28.577Z,56.51
2019-06-07T03:11:25.790Z,56.51
2019-06-07T03:12:26.579Z,56.51
2019-06-07T03:13:28.457Z,56.51
2019-06-07T03:14:26.064Z,56.61
2019-06-07T03:15:35.548Z,56.61
2019-06-07T03:16:26.201Z,56.61
2019-06-07T03:17:24.807Z,56.51
2019-06-07T03:18:24.776Z,56.61
2019-06-07T03:19:24.752Z,56.51
2019-06-07T03:20:24.933Z,56.51
2019-06-07T03:21:24.694Z,56.51
2019-06-07T03:22:24.664Z,56.51
2019-06-07T03:23:26.215Z,56.51
2019-06-07T03:24:24.656Z,56.51
2019-06-07T03:25:25.733Z,56.51
2019-06-07T03:26:24.566Z,56.61
2019-06-07T03:27:40.645Z,56.61
2019-06-07T03:28:25.557Z,56.61
2019-06-07T03:29:24.505Z,56.61
2019-06-07T03:30:38.757Z,56.61
2019-06-07T03:31:28.448Z,56.61
2019-06-07T03:32:25.428Z,56.61
2019-06-07T03:33:24.409Z,56.61
2019-06-07T03:34:24.390Z,56.61
2019-06-07T03:35:24.374Z,56.61
2019-06-07T03:36:26.026Z,56.61
2019-06-07T03:37:24.332Z,56.61
2019-06-07T03:38:24.344Z,56.61
2019-06-07T03:39:25.286Z,56.61
2019-06-07T03:40:24.338Z,56.61
2019-06-07T03:41:24.254Z,56.61
2019-06-07T03:42:24.233Z,56.61
2019-06-07T03:43:24.213Z,56.61
2019-06-07T03:44:24.189Z,56.61
2019-06-07T03:45:24.164Z,56.61
2019-06-07T03:46:24.143Z,56.61
2019-06-07T03:47:24.113Z,56.61
2019-06-07T03:48:24.091Z,56.61
2019-06-07T03:49:24.068Z,56.61
2019-06-07T03:50:24.038Z,56.61
2019-06-07T03:51:26.914Z,56.61
2019-06-07T03:52:23.992Z,56.71
2019-06-07T03:53:23.969Z,56.61
2019-06-07T03:54:23.947Z,56.71
2019-06-07T03:55:23.934Z,56.71
2019-06-07T03:56:23.961Z,56.71
2019-06-07T03:57:23.879Z,56.71
2019-06-07T03:58:34.585Z,56.71
2019-06-07T03:59:24.830Z,56.71
2019-06-07T04:00:23.806Z,56.71
2019-06-07T04:01:23.783Z,56.71
2019-06-07T04:02:23.765Z,56.71
2019-06-07T04:03:33.756Z,56.71
2019-06-07T04:04:24.731Z,56.71
2019-06-07T04:05:23.705Z,56.71
2019-06-07T04:06:23.673Z,56.71
2019-06-07T04:07:23.647Z,56.71
2019-06-07T04:08:23.604Z,56.71
2019-06-07T04:09:23.575Z,56.71
2019-06-07T04:10:45.838Z,56.71
2019-06-07T04:11:24.533Z,56.71
2019-06-07T04:12:23.558Z,56.71
2019-06-07T04:13:23.525Z,56.71
2019-06-07T04:14:23.572Z,56.71
2019-06-07T04:15:23.438Z,56.71
2019-06-07T04:16:23.422Z,56.71
2019-06-07T04:17:23.376Z,56.71
2019-06-07T04:18:23.361Z,56.81
2019-06-07T04:19:23.318Z,56.71
2019-06-07T04:20:23.292Z,56.71
2019-06-07T04:21:23.269Z,56.71
2019-06-07T04:22:23.255Z,56.81
2019-06-07T04:23:29.896Z,56.81
2019-06-07T04:24:24.188Z,56.81
2019-06-07T04:25:23.177Z,56.71
2019-06-07T04:26:23.139Z,56.71
2019-06-07T04:27:23.119Z,56.81
2019-06-07T04:28:23.189Z,56.71
2019-06-07T04:29:33.311Z,56.71
2019-06-07T04:30:24.051Z,56.81
2019-06-07T04:31:23.037Z,56.81
2019-06-07T04:32:23.001Z,56.81
2019-06-07T04:33:22.975Z,56.81
2019-06-07T04:34:22.955Z,56.81
2019-06-07T04:35:22.924Z,56.81
2019-06-07T04:36:39.524Z,56.81
2019-06-07T04:37:23.871Z,56.81
2019-06-07T04:38:22.843Z,56.81
2019-06-07T04:39:22.835Z,56.91
2019-06-07T04:40:22.799Z,56.81
2019-06-07T04:41:22.787Z,56.81
2019-06-07T04:42:22.748Z,56.91
2019-06-07T04:43:22.777Z,56.91
2019-06-07T04:44:22.741Z,56.91
2019-06-07T04:45:33.553Z,56.91
2019-06-07T04:46:23.646Z,56.91
2019-06-07T04:47:22.618Z,56.91
2019-06-07T04:48:22.602Z,56.91
2019-06-07T04:49:22.551Z,56.81
2019-06-07T04:50:22.525Z,56.91
2019-06-07T04:51:22.555Z,56.81
2019-06-07T04:52:22.482Z,56.91
2019-06-07T04:53:22.438Z,56.91
2019-06-07T04:54:22.411Z,56.91
2019-06-07T04:55:22.385Z,56.91
2019-06-07T04:56:22.362Z,56.81
2019-06-07T04:57:22.345Z,56.91
2019-06-07T04:58:22.307Z,56.91
2019-06-07T05:00:01.077Z,56.91
2019-06-07T05:00:48.682Z,56.91
2019-06-07T05:01:29.121Z,56.91
2019-06-07T05:02:23.211Z,56.91
2019-06-07T05:03:22.191Z,56.91
2019-06-07T05:04:22.161Z,56.91
2019-06-07T05:05:22.136Z,57.01
2019-06-07T05:06:22.129Z,57.01
2019-06-07T05:07:22.162Z,57.01
2019-06-07T05:08:27.972Z,56.91
2019-06-07T05:09:23.033Z,56.91
2019-06-07T05:10:22.034Z,56.91
2019-06-07T05:11:21.974Z,56.91
2019-06-07T05:12:21.966Z,57.01
2019-06-07T05:13:21.918Z,56.91
2019-06-07T05:14:21.890Z,56.91
2019-06-07T05:15:21.872Z,56.91
2019-06-07T05:16:21.885Z,56.91
2019-06-07T05:17:21.826Z,56.91
2019-06-07T05:18:21.798Z,57.01
2019-06-07T05:19:21.769Z,56.91
2019-06-07T05:20:21.753Z,57.01
2019-06-07T05:21:21.726Z,57.01
2019-06-07T05:22:21.689Z,57.01
2019-06-07T05:24:00.243Z,57.10
2019-06-07T05:24:22.633Z,57.10
2019-06-07T05:25:21.610Z,57.01
2019-06-07T05:26:21.583Z,56.91
2019-06-07T05:27:21.561Z,56.91
2019-06-07T05:28:21.536Z,56.91
2019-06-07T05:29:21.510Z,56.91
2019-06-07T05:30:59.524Z,57.01
2019-06-07T05:31:22.463Z,57.01
2019-06-07T05:32:21.480Z,56.91
2019-06-07T05:33:21.411Z,56.91
2019-06-07T05:34:21.386Z,57.01
2019-06-07T05:35:21.377Z,57.01
2019-06-07T05:36:21.335Z,57.01
2019-06-07T05:37:21.310Z,57.10
2019-06-07T05:38:21.281Z,57.10
2019-06-07T05:39:21.251Z,57.10
2019-06-07T05:40:21.584Z,57.10
2019-06-07T05:41:21.201Z,57.10
2019-06-07T05:42:21.176Z,57.10
2019-06-07T05:43:21.156Z,57.10
2019-06-07T05:44:21.138Z,57.10
2019-06-07T05:45:21.105Z,57.10
2019-06-07T05:46:21.078Z,57.10
2019-06-07T05:47:21.059Z,57.10
2019-06-07T05:48:21.312Z,57.10
2019-06-07T05:49:21.012Z,57.10
2019-06-07T05:50:39.160Z,57.10
2019-06-07T05:51:21.962Z,57.10
2019-06-07T05:52:20.969Z,57.20
2019-06-07T05:53:20.917Z,57.20
2019-06-07T05:54:20.908Z,57.10
2019-06-07T05:55:20.871Z,57.20
2019-06-07T05:56:20.848Z,57.10
2019-06-07T05:57:20.826Z,57.10
2019-06-07T05:58:20.803Z,57.01
2019-06-07T05:59:20.804Z,57.10
2019-06-07T06:00:20.761Z,57.10
2019-06-07T06:02:23.170Z,57.10
2019-06-07T06:03:20.680Z,57.10
2019-06-07T06:04:20.690Z,57.20
2019-06-07T06:05:33.429Z,57.20
2019-06-07T06:06:21.607Z,57.20
2019-06-07T06:07:20.606Z,57.10
2019-06-07T06:08:20.566Z,57.10
2019-06-07T06:09:20.529Z,57.10
2019-06-07T06:10:20.504Z,57.07
2019-06-07T06:11:20.481Z,57.10
2019-06-07T06:12:34.779Z,57.20
2019-06-07T06:13:21.436Z,57.20
2019-06-07T06:14:20.405Z,57.18
2019-06-07T06:15:32.959Z,57.20
2019-06-07T06:16:21.331Z,57.20
2019-06-07T06:17:20.301Z,57.20
2019-06-07T06:18:20.271Z,57.20
2019-06-07T06:19:20.241Z,57.20
2019-06-07T06:20:20.277Z,57.20
2019-06-07T06:21:20.684Z,57.18
2019-06-07T06:22:20.172Z,57.20
2019-06-07T06:23:20.127Z,57.20
2019-06-07T06:24:20.113Z,57.18
2019-06-07T06:25:37.571Z,57.20
2019-06-07T06:26:21.052Z,57.18
2019-06-07T06:28:02.650Z,57.20
2019-06-07T06:28:20.994Z,57.10
2019-06-07T06:29:19.976Z,57.20
2019-06-07T06:30:19.937Z,57.18
2019-06-07T06:31:19.917Z,57.18
2019-06-07T06:33:33.436Z,57.10
2019-06-07T06:34:20.834Z,57.07
2019-06-07T06:35:19.819Z,57.10
2019-06-07T06:36:20.367Z,57.07
2019-06-07T06:37:19.762Z,57.07
2019-06-07T06:38:19.760Z,57.07
2019-06-07T06:39:19.711Z,57.10
2019-06-07T06:40:19.680Z,57.07
2019-06-07T06:41:21.094Z,57.07
2019-06-07T06:42:19.633Z,57.07
2019-06-07T06:43:19.591Z,57.07
2019-06-07T06:44:19.578Z,56.98
2019-06-07T06:45:19.530Z,57.01
2019-06-07T06:46:37.392Z,56.98
2019-06-07T06:47:20.485Z,56.98
2019-06-07T06:48:19.449Z,56.98
2019-06-07T06:49:19.433Z,56.98
2019-06-07T06:50:19.394Z,56.98
2019-06-07T06:51:19.369Z,56.88
2019-06-07T06:52:19.401Z,56.88
2019-06-07T06:53:19.328Z,56.88
2019-06-07T06:54:39.480Z,56.88
2019-06-07T06:55:20.280Z,56.88
2019-06-07T06:56:19.244Z,56.88
2019-06-07T06:57:20.418Z,56.88
2019-06-07T06:58:19.195Z,56.78
2019-06-07T06:59:38.148Z,56.88
2019-06-07T07:00:20.136Z,56.88
2019-06-07T07:01:19.126Z,56.88
2019-06-07T07:02:19.093Z,56.88
2019-06-07T07:04:20.035Z,56.88
2019-06-07T07:05:18.994Z,56.88
2019-06-07T07:06:26.842Z,56.88
2019-06-07T07:07:19.949Z,56.88
2019-06-07T07:08:18.959Z,56.88
2019-06-07T07:09:18.884Z,56.88
2019-06-07T07:10:18.867Z,56.88
2019-06-07T07:11:23.296Z,56.88
2019-06-07T07:12:18.860Z,56.88
2019-06-07T07:13:18.768Z,56.88
2019-06-07T07:14:18.741Z,56.88
2019-06-07T07:15:18.713Z,56.88
2019-06-07T07:16:18.699Z,56.88
2019-06-07T07:17:18.657Z,56.88
2019-06-07T07:18:18.647Z,56.88
2019-06-07T07:19:18.623Z,56.88
2019-06-07T07:20:18.581Z,56.88
2019-06-07T07:21:18.565Z,56.88
2019-06-07T07:22:18.631Z,56.88
2019-06-07T07:23:18.505Z,56.88
2019-06-07T07:24:21.674Z,56.88
2019-06-07T07:25:18.465Z,56.88
2019-06-07T07:26:18.431Z,56.88
2019-06-07T07:27:18.409Z,56.88
2019-06-07T07:28:18.386Z,56.88
2019-06-07T07:29:18.413Z,56.88
2019-06-07T07:31:19.324Z,56.88
2019-06-07T07:32:18.284Z,56.88
2019-06-07T07:33:18.258Z,56.88
2019-06-07T07:34:33.595Z,56.88
2019-06-07T07:35:19.207Z,56.88
2019-06-07T07:36:37.508Z,56.88
2019-06-07T07:37:19.151Z,56.88
2019-06-07T07:38:18.138Z,56.88
2019-06-07T07:39:18.098Z,56.88
2019-06-07T07:40:56.152Z,56.88
2019-06-07T07:41:19.047Z,56.78
2019-06-07T07:42:21.487Z,56.78
2019-06-07T07:43:17.996Z,56.78
2019-06-07T07:44:17.971Z,56.78
2019-06-07T07:45:18.002Z,56.78
2019-06-07T07:46:29.307Z,56.78
2019-06-07T07:47:18.895Z,56.78
2019-06-07T07:48:18.615Z,56.78
2019-06-07T07:49:17.858Z,56.78
2019-06-07T07:50:17.819Z,56.78
2019-06-07T07:51:17.805Z,56.78
2019-06-07T07:52:17.768Z,56.78
2019-06-07T07:53:17.785Z,56.78
2019-06-07T07:54:17.741Z,56.78
2019-06-07T07:55:17.754Z,56.78
2019-06-07T07:56:17.681Z,56.78
2019-06-07T07:57:17.663Z,56.78
2019-06-07T07:58:17.627Z,56.78
2019-06-07T07:59:17.598Z,56.78
2019-06-07T08:00:49.297Z,56.78
2019-06-07T08:01:18.575Z,56.78
2019-06-07T08:02:17.514Z,56.78
2019-06-07T08:03:17.496Z,56.78
2019-06-07T08:04:17.499Z,56.78
2019-06-07T08:05:25.567Z,56.78
2019-06-07T08:06:18.426Z,56.78
2019-06-07T08:07:17.393Z,56.78
2019-06-07T08:08:17.365Z,56.78
2019-06-07T08:09:17.346Z,56.78
2019-06-07T08:10:17.321Z,56.78
2019-06-07T08:11:17.289Z,56.78
2019-06-07T08:12:17.266Z,56.78
2019-06-07T08:13:25.710Z,56.78
2019-06-07T08:14:18.207Z,56.78
2019-06-07T08:15:17.180Z,56.78
2019-06-07T08:16:18.838Z,56.78
2019-06-07T08:17:17.127Z,56.78
2019-06-07T08:18:17.110Z,56.78
2019-06-07T08:19:17.077Z,56.78
2019-06-07T08:20:17.063Z,57.67
2019-06-07T08:21:25.500Z,57.97
2019-06-07T08:22:17.990Z,58.75
2019-06-07T08:23:16.974Z,58.46
2019-06-07T08:24:16.930Z,59.64
2019-06-07T08:25:16.913Z,60.24
2019-06-07T08:26:16.875Z,60.04
2019-06-07T08:27:25.854Z,60.33
2019-06-07T08:28:17.815Z,59.25
2019-06-07T08:29:16.789Z,57.87
2019-06-07T08:30:47.334Z,58.14
2019-06-07T08:31:17.722Z,56.56
2019-06-07T08:32:16.716Z,56.46
2019-06-07T08:33:25.823Z,57.54
2019-06-07T08:34:17.632Z,57.45
2019-06-07T08:36:02.551Z,57.93
2019-06-07T08:36:25.136Z,57.34
2019-06-07T08:37:17.551Z,58.43
2019-06-07T08:38:26.498Z,57.34
2019-06-07T08:39:17.492Z,56.75
2019-06-07T08:40:16.474Z,56.85
2019-06-07T08:41:16.447Z,56.95
2019-06-07T08:42:21.761Z,57.05
2019-06-07T08:43:20.555Z,57.05
2019-06-07T08:44:23.715Z,57.18
2019-06-07T08:45:17.321Z,56.98
2019-06-07T08:46:16.304Z,56.88
2019-06-07T08:47:20.436Z,56.98
2019-06-07T08:48:27.467Z,56.78
2019-06-07T08:49:17.221Z,56.78
2019-06-07T08:50:16.188Z,56.78
2019-06-07T08:51:16.161Z,56.78
2019-06-07T08:52:16.150Z,56.68
2019-06-07T08:53:16.125Z,56.68
2019-06-07T08:54:22.676Z,56.78
2019-06-07T08:55:17.061Z,56.88
2019-06-07T08:56:16.051Z,56.78
2019-06-07T08:57:21.495Z,56.68
2019-06-07T08:58:16.993Z,56.98
2019-06-07T08:59:15.973Z,56.48
2019-06-07T09:00:42.976Z,56.38
2019-06-07T09:01:16.942Z,56.38
2019-06-07T09:02:23.870Z,56.38
2019-06-07T09:03:16.894Z,56.38
2019-06-07T09:04:15.926Z,56.48
2019-06-07T09:05:15.862Z,56.26
2019-06-07T09:07:01.203Z,56.65
2019-06-07T09:07:19.885Z,56.56
2019-06-07T09:08:29.270Z,56.56
2019-06-07T09:09:16.880Z,56.56
2019-06-07T09:10:15.880Z,56.46
2019-06-07T09:11:15.743Z,56.46
2019-06-07T09:12:15.723Z,56.43
2019-06-07T09:13:15.717Z,56.23
2019-06-07T09:14:15.684Z,56.23
2019-06-07T09:15:23.430Z,56.04
2019-06-07T09:16:16.654Z,56.04
2019-06-07T09:17:15.628Z,55.94
2019-06-07T09:18:42.031Z,55.83
2019-06-07T09:19:16.593Z,55.94
2019-06-07T09:20:35.681Z,55.64
2019-06-07T09:21:16.539Z,55.74
2019-06-07T09:22:15.519Z,55.74
2019-06-07T09:23:17.098Z,55.35
2019-06-07T09:24:15.481Z,55.24
2019-06-07T09:25:20.897Z,55.24
2019-06-07T09:26:18.785Z,54.75
2019-06-07T09:27:15.390Z,54.65
2019-06-07T09:28:19.773Z,54.78
2019-06-07T09:29:16.340Z,54.68
2019-06-07T09:30:18.650Z,54.58
2019-06-07T09:31:15.292Z,54.75
2019-06-07T09:32:18.313Z,54.36
2019-06-07T09:33:15.233Z,54.16
2019-06-07T09:34:15.759Z,54.26
2019-06-07T09:35:17.387Z,54.26
2019-06-07T09:36:15.148Z,54.36
2019-06-07T09:38:03.121Z,54.36
2019-06-07T09:38:25.829Z,54.36
2019-06-07T09:39:16.067Z,54.36
2019-06-07T09:40:25.059Z,54.26
2019-06-07T09:41:16.046Z,54.13
2019-06-07T09:42:15.001Z,54.23
2019-06-07T09:44:24.953Z,54.63
2019-06-07T09:45:15.917Z,54.43
2019-06-07T09:46:16.277Z,54.43
2019-06-07T09:47:31.308Z,54.43
2019-06-07T09:48:34.435Z,54.53
2019-06-07T09:49:28.529Z,54.53
2019-06-07T09:50:15.818Z,54.43
2019-06-07T09:51:20.041Z,54.23
2019-06-07T09:52:15.774Z,54.23
2019-06-07T09:53:22.838Z,54.30
2019-06-07T09:54:56.428Z,54.21
2019-06-07T09:55:24.399Z,54.40
2019-06-07T09:56:15.680Z,54.11
2019-06-07T09:57:17.298Z,54.11
2019-06-07T09:58:50.202Z,54.30
2019-06-07T09:59:15.631Z,54.11
2019-06-07T10:00:38.610Z,54.30
2019-06-07T10:01:15.568Z,53.91
2019-06-07T10:02:14.590Z,54.01
2019-06-07T10:03:21.238Z,53.81
2019-06-07T10:04:30.345Z,53.91
2019-06-07T10:05:15.477Z,54.11
2019-06-07T10:06:14.452Z,54.11
2019-06-07T10:07:30.850Z,53.91
2019-06-07T10:09:15.104Z,54.11
2019-06-07T10:11:15.317Z,54.01
2019-06-07T10:12:14.273Z,53.81
2019-06-07T10:13:14.249Z,53.81
2019-06-07T10:14:14.228Z,53.71
2019-06-07T10:15:14.186Z,53.71
2019-06-07T10:16:14.166Z,53.39
2019-06-07T10:17:14.135Z,53.30
2019-06-07T10:18:14.110Z,53.09
2019-06-07T10:19:14.091Z,53.19
2019-06-07T10:20:14.049Z,53.00
2019-06-07T10:21:15.133Z,52.90
2019-06-07T10:22:14.008Z,53.19
2019-06-07T10:23:13.977Z,53.00
2019-06-07T10:24:13.944Z,53.09
2019-06-07T10:25:13.942Z,53.19
2019-06-07T10:26:13.888Z,53.19
2019-06-07T10:27:13.852Z,53.09
2019-06-07T10:28:13.921Z,53.19
2019-06-07T10:29:13.798Z,53.19
2019-06-07T10:30:13.755Z,52.90
2019-06-07T10:31:13.727Z,53.09
2019-06-07T10:32:13.707Z,53.09
2019-06-07T10:33:13.716Z,53.00
2019-06-07T10:34:13.654Z,53.00
2019-06-07T10:35:16.358Z,53.19
2019-06-07T10:36:13.618Z,53.30
2019-06-07T10:37:15.550Z,53.49
2019-06-07T10:38:13.566Z,53.30
2019-06-07T10:39:13.522Z,53.19
2019-06-07T10:40:13.526Z,53.19
2019-06-07T10:41:13.466Z,53.00
2019-06-07T10:42:13.440Z,53.00
2019-06-07T10:43:14.584Z,52.90
2019-06-07T10:44:13.391Z,53.00
2019-06-07T10:45:13.363Z,53.19
2019-06-07T10:46:13.332Z,53.00
2019-06-07T10:47:13.319Z,53.19
2019-06-07T10:48:13.293Z,53.39
2019-06-07T10:49:13.253Z,53.30
2019-06-07T10:50:13.285Z,54.08
2019-06-07T10:51:14.829Z,53.39
2019-06-07T10:52:13.377Z,53.09
2019-06-07T10:53:13.141Z,53.19
2019-06-07T10:54:24.134Z,53.30
2019-06-07T10:55:14.091Z,53.00
2019-06-07T10:56:13.439Z,52.87
2019-06-07T10:57:16.082Z,52.97
2019-06-07T10:58:13.291Z,52.87
2019-06-07T10:59:13.728Z,52.97
2019-06-07T11:00:13.602Z,52.97
2019-06-07T11:01:14.429Z,52.97
2019-06-07T11:02:14.055Z,52.97
2019-06-07T11:03:14.260Z,52.78
2019-06-07T11:04:13.831Z,52.78
2019-06-07T11:05:14.502Z,52.87
2019-06-07T11:06:14.048Z,52.68
2019-06-07T11:07:14.334Z,52.68
2019-06-07T11:08:13.689Z,52.68
2019-06-07T11:09:14.122Z,52.58
2019-06-07T11:10:17.722Z,52.78
2019-06-07T11:11:14.386Z,52.97
2019-06-07T11:12:12.639Z,52.87
2019-06-07T11:13:12.618Z,52.87
2019-06-07T11:14:12.779Z,51.79
2019-06-07T11:15:12.961Z,52.97
2019-06-07T11:16:13.094Z,52.97
2019-06-07T11:17:13.408Z,52.09
2019-06-07T11:18:12.595Z,51.69
2019-06-07T11:19:15.449Z,50.71
2019-06-07T11:20:14.427Z,52.48
2019-06-07T11:21:12.364Z,51.89
2019-06-07T11:22:12.388Z,52.09
2019-06-07T11:23:12.372Z,49.92
2019-06-07T11:24:12.417Z,52.19
2019-06-07T11:25:12.919Z,52.78
2019-06-07T11:26:12.531Z,52.09
2019-06-07T11:27:14.053Z,52.68
2019-06-07T11:28:12.545Z,52.38
2019-06-07T11:29:12.799Z,52.19
2019-06-07T11:30:12.559Z,53.27
2019-06-07T11:31:13.342Z,53.47
2019-06-07T11:32:12.581Z,53.56
2019-06-07T11:33:15.738Z,53.17
2019-06-07T11:34:12.503Z,53.36
2019-06-07T11:35:13.706Z,52.87
2019-06-07T11:36:12.820Z,53.76
2019-06-07T11:37:13.624Z,53.96
2019-06-07T11:38:00.907Z,54.16
2019-06-07T11:39:00.807Z,54.05
2019-06-07T11:40:36.107Z,53.955078
2019-06-07T11:41:34.404Z,53.759766
2019-06-07T11:42:34.100Z,55.334473
2019-06-07T11:43:08.555Z,54.052734
2019-06-07T11:44:08.734Z,54.052734
2019-06-07T11:45:10.453Z,54.156494
2019-06-07T11:46:08.830Z,54.351807
2019-06-07T11:47:10.437Z,54.840088
2019-06-07T11:48:09.007Z,54.449463
2019-06-07T11:49:10.735Z,54.156494
2019-06-07T11:50:09.276Z,54.547119
2019-06-07T11:51:10.644Z,54.742432
2019-06-07T11:52:09.039Z,54.052734
2019-06-07T11:53:08.532Z,54.547119
2019-06-07T11:54:09.645Z,54.742432
2019-06-07T11:55:11.314Z,54.840088
2019-06-07T11:58:11.461Z,54.644775
2019-06-07T11:59:08.985Z,54.644775
2019-06-07T12:00:09.501Z,54.25415
2019-06-07T12:01:33.354Z,55.13916
2019-06-07T12:02:33.276Z,54.91333
2019-06-07T12:03:34.293Z,53.509521
2019-06-07T12:04:37.461Z,52.79541
2019-06-07T12:05:33.261Z,52.624512
2019-06-07T12:06:33.373Z,44.287109
2019-06-07T12:07:33.231Z,45.983887
2019-06-07T12:08:33.163Z,48.187256
2019-06-07T12:09:34.200Z,47.521973
2019-06-07T12:10:41.979Z,48.156738
2019-06-07T12:11:34.189Z,49.237061
2019-06-07T12:12:33.162Z,47.766113
2019-06-07T12:13:33.090Z,47.86377
2019-06-07T12:14:33.096Z,48.846436
2019-06-07T12:15:33.120Z,48.059082
2019-06-07T12:16:36.171Z,48.822021
2019-06-07T12:17:33.275Z,47.473145
2019-06-07T12:18:33.310Z,49.725342
2019-06-07T12:19:33.282Z,50.90332
2019-06-07T12:20:33.135Z,50.878906
2019-06-07T12:21:33.313Z,47.564697
2019-06-07T12:22:33.123Z,48.052979
2019-06-07T12:23:33.183Z,50.140381
2019-06-07T12:24:33.197Z,45.227051
2019-06-07T12:25:32.967Z,49.511719
2019-06-07T12:26:33.047Z,41.815186
2019-06-07T12:27:33.285Z,34.063721
2019-06-07T12:28:33.564Z,29.998779
2019-06-07T12:29:34.165Z,27.789307
2019-06-07T12:30:55.010Z,25.653076
2019-06-07T12:31:33.575Z,24.682617
2019-06-07T12:32:33.207Z,27.520752
2019-06-07T12:33:33.107Z,30.609131
2019-06-07T12:34:32.901Z,34.509277
2019-06-07T12:35:32.945Z,35.070801
2019-06-07T12:36:33.168Z,37.371826
2019-06-07T12:38:34.176Z,39.959717
2019-06-07T12:39:33.036Z,39.141846
2019-06-07T12:40:33.891Z,45.483398
2019-06-07T12:41:33.109Z,46.661377
2019-06-07T12:42:32.861Z,45.495605
2019-06-07T12:43:32.950Z,47.229004
2019-06-07T12:44:32.839Z,46.759033
2019-06-07T12:45:44.723Z,46.234131
2019-06-07T12:46:36.835Z,47.753906
2019-06-07T12:47:32.749Z,49.377441
2019-06-07T12:48:32.852Z,49.694824
2019-06-07T12:49:32.785Z,54.626465
2019-06-07T12:50:42.864Z,52.038574
2019-06-07T12:51:32.986Z,50.854492
2019-06-07T12:52:33.953Z,51.275635
2019-06-07T12:53:33.089Z,53.076172
2019-06-07T12:54:32.711Z,54.034424